Time;durP1;ratioP1;P1;durP2;ratioP2;P2;SDS_P1;SDS_P2;PMS_P1;PMS_P2;Temp;Humidity;BMP_temperature;BMP_pressure;BME280_temperature;BME280_humidity;BME280_pressure;Samples;Min_cycle;Max_cycle;Signal;HPM_P1;HPM_P2
2023/09/13 00:01:34;;;;;;;14.70;13.20;;;;;;;;;;5093088;28;20230;-86
2023/09/13 00:04:00;;;;;;;13.90;12.60;;;;;;;;;;5093100;28;20510;-79
2023/09/13 00:06:26;;;;;;;12.60;11.47;;;;;;;;;;5092967;28;20296;-80
2023/09/13 00:08:52;;;;;;;13.33;12.13;;;;;;;;;;5091752;28;20443;-81
2023/09/13 00:11:18;;;;;;;13.00;11.80;;;;;;;;;;5092672;28;20179;-88
2023/09/13 00:13:44;;;;;;;15.67;14.17;;;;;;;;;;5092949;28;20171;-79
2023/09/13 00:16:11;;;;;;;12.07;10.87;;;;;;;;;;5092848;28;20963;-79
2023/09/13 00:18:37;;;;;;;14.57;13.07;;;;;;;;;;5092841;28;20445;-79
2023/09/13 00:21:03;;;;;;;13.87;12.20;;;;;;;;;;5092922;28;20440;-87
2023/09/13 00:23:29;;;;;;;12.40;11.30;;;;;;;;;;5092864;28;20202;-80
2023/09/13 00:25:55;;;;;;;12.67;11.67;;;;;;;;;;5092566;28;20284;-87
2023/09/13 00:28:21;;;;;;;14.27;11.87;;;;;;;;;;5096852;28;20583;-86
2023/09/13 00:30:47;;;;;;;13.03;12.03;;;;;;;;;;5097985;28;20185;-79
2023/09/13 00:33:13;;;;;;;13.83;12.53;;;;;;;;;;5096593;28;20779;-79
2023/09/13 00:35:39;;;;;;;13.73;12.50;;;;;;;;;;5096260;28;20173;-80
2023/09/13 00:38:05;;;;;;;14.83;13.40;;;;;;;;;;5095290;28;20166;-81
2023/09/13 00:40:31;;;;;;;13.27;11.97;;;;;;;;;;5096145;28;20896;-80
2023/09/13 00:42:59;;;;;;;15.63;14.23;;;;;;;;;;5096386;28;20415;-80
2023/09/13 00:45:25;;;;;;;13.53;11.10;;;;;;;;;;5096273;28;20198;-85
2023/09/13 00:47:51;;;;;;;14.47;13.07;;;;;;;;;;5095083;28;20433;-87
2023/09/13 00:50:17;;;;;;;14.23;12.90;;;;;;;;;;5096355;28;20452;-81
2023/09/13 00:52:45;;;;;;;11.57;10.47;;;;;;;;;;5076313;28;20487;-81
2023/09/13 00:55:13;;;;;;;14.53;13.00;;;;;;;;;;5075604;28;20411;-80
2023/09/13 00:57:39;;;;;;;14.77;13.27;;;;;;;;;;5076031;28;20450;-81
2023/09/13 01:00:09;;;;;;;16.37;14.73;;;;;;;;;;5075799;28;20408;-85
2023/09/13 01:02:37;;;;;;;24.30;16.30;;;;;;;;;;5075635;28;20460;-81
2023/09/13 01:05:04;;;;;;;20.50;15.10;;;;;;;;;;5075681;28;20883;-80
2023/09/13 01:07:30;;;;;;;17.80;15.40;;;;;;;;;;5075967;28;20422;-81
2023/09/13 01:09:56;;;;;;;17.13;15.33;;;;;;;;;;5074428;28;20428;-80
2023/09/13 01:12:22;;;;;;;16.57;14.10;;;;;;;;;;5074389;28;20874;-87
2023/09/13 01:14:48;;;;;;;15.87;14.27;;;;;;;;;;5075481;28;20423;-87
2023/09/13 01:17:17;;;;;;;14.00;12.60;;;;;;;;;;5075577;28;20770;-86
2023/09/13 01:19:55;;;;;;;14.13;12.77;;;;;;;;;;5074656;28;20785;-80
2023/09/13 01:22:30;;;;;;;15.17;13.57;;;;;;;;;;5075625;28;20834;-80
2023/09/13 01:25:22;;;;;;;14.03;12.73;;;;;;;;;;5074929;28;20421;-84
2023/09/13 01:27:49;;;;;;;15.40;13.90;;;;;;;;;;5075277;28;20477;-83
2023/09/13 01:30:16;;;;;;;15.30;13.80;;;;;;;;;;5075308;28;20411;-80
2023/09/13 01:32:46;;;;;;;13.37;11.97;;;;;;;;;;5075089;28;20516;-80
2023/09/13 01:35:12;;;;;;;17.27;11.10;;;;;;;;;;5075276;28;20733;-81
2023/09/13 01:37:38;;;;;;;15.83;13.00;;;;;;;;;;5073142;28;20471;-85
2023/09/13 01:40:06;;;;;;;15.07;13.13;;;;;;;;;;5074248;28;20436;-82
2023/09/13 01:42:33;;;;;;;15.80;13.33;;;;;;;;;;5074951;28;20406;-80
2023/09/13 01:45:00;;;;;;;13.83;12.47;;;;;;;;;;5074927;28;20460;-80
2023/09/13 01:47:28;;;;;;;14.10;11.90;;;;;;;;;;5074878;28;20461;-80
2023/09/13 01:49:55;;;;;;;14.50;13.13;;;;;;;;;;5074984;28;20405;-80
2023/09/13 01:52:21;;;;;;;17.10;13.00;;;;;;;;;;5075059;28;20853;-80
2023/09/13 01:54:47;;;;;;;13.50;12.20;;;;;;;;;;5074452;28;20401;-80
2023/09/13 01:57:12;;;;;;;15.80;13.30;;;;;;;;;;5074684;28;20837;-85
2023/09/13 01:59:38;;;;;;;14.53;12.40;;;;;;;;;;5074709;28;20180;-80
2023/09/13 02:02:04;;;;;;;12.87;11.63;;;;;;;;;;5074445;28;20216;-86
2023/09/13 02:04:33;;;;;;;19.60;13.03;;;;;;;;;;5074569;28;20413;-80
2023/09/13 02:06:59;;;;;;;13.53;11.67;;;;;;;;;;5073180;28;20822;-80
2023/09/13 02:09:25;;;;;;;13.73;12.50;;;;;;;;;;5074024;28;20409;-80
2023/09/13 02:11:51;;;;;;;13.70;12.30;;;;;;;;;;5073171;28;20426;-85
2023/09/13 02:14:17;;;;;;;18.17;16.23;;;;;;;;;;5074417;28;20632;-80
2023/09/13 02:16:43;;;;;;;21.83;15.13;;;;;;;;;;5074606;28;20187;-87
2023/09/13 02:19:09;;;;;;;18.50;14.67;;;;;;;;;;5073353;28;20180;-87
2023/09/13 02:21:35;;;;;;;19.57;16.90;;;;;;;;;;5074534;28;20182;-86
2023/09/13 02:24:01;;;;;;;26.53;17.90;;;;;;;;;;5074121;28;20409;-89
2023/09/13 02:26:27;;;;;;;20.80;16.80;;;;;;;;;;5074430;28;20242;-88
2023/09/13 02:28:53;;;;;;;25.13;22.40;;;;;;;;;;5074478;28;20404;-89
2023/09/13 02:31:26;;;;;;;23.37;20.70;;;;;;;;;;5074479;28;20420;-86
2023/09/13 02:33:53;;;;;;;27.07;22.73;;;;;;;;;;5074405;28;20433;-88
2023/09/13 02:36:19;;;;;;;31.43;24.27;;;;;;;;;;5074140;28;20421;-88
2023/09/13 02:38:45;;;;;;;25.97;23.03;;;;;;;;;;5074003;28;20415;-80
2023/09/13 02:41:11;;;;;;;26.87;24.07;;;;;;;;;;5074048;28;20513;-86
2023/09/13 02:43:37;;;;;;;32.90;27.27;;;;;;;;;;5074091;28;20545;-88
2023/09/13 02:46:03;;;;;;;27.70;24.90;;;;;;;;;;5073919;28;20528;-87
2023/09/13 02:48:29;;;;;;;29.30;24.27;;;;;;;;;;5074124;28;20441;-89
2023/09/13 02:50:55;;;;;;;28.00;25.00;;;;;;;;;;5072656;28;20179;-89
2023/09/13 02:53:22;;;;;;;28.37;24.10;;;;;;;;;;5073966;28;20413;-88
2023/09/13 02:55:48;;;;;;;27.30;24.07;;;;;;;;;;5073566;28;20414;-88
2023/09/13 02:58:14;;;;;;;27.13;24.43;;;;;;;;;;5073844;28;20467;-88
2023/09/13 03:00:43;;;;;;;25.60;20.87;;;;;;;;;;5073885;28;20178;-88
2023/09/13 03:03:09;;;;;;;25.90;23.07;;;;;;;;;;5073503;28;20490;-86
2023/09/13 03:05:36;;;;;;;27.60;22.73;;;;;;;;;;5073574;28;20545;-88
2023/09/13 03:08:02;;;;;;;24.37;21.57;;;;;;;;;;5073794;28;20414;-87
2023/09/13 03:10:28;;;;;;;28.03;23.10;;;;;;;;;;5073726;28;20434;-83
2023/09/13 03:12:54;;;;;;;26.90;23.07;;;;;;;;;;5073755;28;20585;-80
2023/09/13 03:15:20;;;;;;;26.60;23.23;;;;;;;;;;5073370;28;20409;-80
2023/09/13 03:17:46;;;;;;;26.00;22.93;;;;;;;;;;5073490;28;20172;-79
2023/09/13 03:20:12;;;;;;;25.00;22.20;;;;;;;;;;5073314;28;20543;-80
2023/09/13 03:22:38;;;;;;;23.87;21.00;;;;;;;;;;5073386;28;20214;-86
2023/09/13 03:25:05;;;;;;;23.43;20.93;;;;;;;;;;5073042;28;20445;-84
2023/09/13 03:27:31;;;;;;;24.17;20.90;;;;;;;;;;5073174;28;20218;-80
2023/09/13 03:29:58;;;;;;;23.13;20.40;;;;;;;;;;5073251;28;20417;-87
2023/09/13 03:32:24;;;;;;;20.37;18.27;;;;;;;;;;5071986;28;20492;-79
2023/09/13 03:34:51;;;;;;;22.23;19.27;;;;;;;;;;5073138;28;20903;-79
2023/09/13 03:37:18;;;;;;;21.07;18.70;;;;;;;;;;5073215;28;20172;-79
2023/09/13 03:39:44;;;;;;;19.23;17.33;;;;;;;;;;5072777;28;20401;-79
2023/09/13 03:42:09;;;;;;;21.53;18.90;;;;;;;;;;5073257;28;20492;-81
2023/09/13 03:44:35;;;;;;;19.40;17.33;;;;;;;;;;5073023;28;20919;-79
2023/09/13 03:47:01;;;;;;;18.20;16.20;;;;;;;;;;5072850;28;20820;-79
2023/09/13 03:49:27;;;;;;;18.90;17.00;;;;;;;;;;5072959;28;20812;-79
2023/09/13 03:51:53;;;;;;;17.03;15.23;;;;;;;;;;5071725;28;20293;-89
2023/09/13 03:54:19;;;;;;;17.10;15.30;;;;;;;;;;5072501;28;20175;-86
2023/09/13 03:56:45;;;;;;;17.63;15.50;;;;;;;;;;5071883;28;20766;-88
2023/09/13 03:59:11;;;;;;;17.03;15.33;;;;;;;;;;5072862;28;20398;-79
2023/09/13 04:01:37;;;;;;;16.53;14.60;;;;;;;;;;5073585;28;20432;-87
2023/09/13 04:04:03;;;;;;;16.93;15.13;;;;;;;;;;5076855;28;20202;-80
2023/09/13 04:06:29;;;;;;;15.83;14.10;;;;;;;;;;5076812;28;20484;-86
2023/09/13 04:08:55;;;;;;;18.63;16.43;;;;;;;;;;5075212;28;20517;-88
2023/09/13 04:11:21;;;;;;;17.73;14.50;;;;;;;;;;5076921;28;20433;-80
2023/09/13 04:13:46;;;;;;;17.20;15.40;;;;;;;;;;5075615;28;20199;-87
2023/09/13 04:16:14;;;;;;;17.83;15.77;;;;;;;;;;5076645;28;20956;-80
2023/09/13 04:18:40;;;;;;;18.20;15.30;;;;;;;;;;5076703;28;20415;-88
2023/09/13 04:21:06;;;;;;;17.80;15.43;;;;;;;;;;5076725;28;20417;-89
2023/09/13 04:23:32;;;;;;;17.10;14.00;;;;;;;;;;5076262;28;20179;-80
2023/09/13 04:25:58;;;;;;;15.67;14.03;;;;;;;;;;5076597;28;20269;-80
2023/09/13 04:28:24;;;;;;;15.87;13.07;;;;;;;;;;5076481;28;20762;-80
2023/09/13 04:30:50;;;;;;;17.47;14.40;;;;;;;;;;5076460;28;20187;-80
2023/09/13 04:33:16;;;;;;;16.70;14.70;;;;;;;;;;5076381;28;20489;-80
2023/09/13 04:35:42;;;;;;;15.20;13.57;;;;;;;;;;5076362;28;20410;-79
2023/09/13 04:38:08;;;;;;;15.50;13.60;;;;;;;;;;5088320;28;20791;-82
2023/09/13 04:40:34;;;;;;;15.20;13.60;;;;;;;;;;5085516;28;20823;-79
2023/09/13 04:43:06;;;;;;;14.83;13.23;;;;;;;;;;5095995;28;20221;-79
2023/09/13 04:45:32;;;;;;;14.47;12.77;;;;;;;;;;5075980;28;20544;-79
2023/09/13 04:47:58;;;;;;;15.20;12.90;;;;;;;;;;5076036;28;20479;-80
2023/09/13 04:50:24;;;;;;;17.40;12.97;;;;;;;;;;5076073;28;20402;-87
2023/09/13 04:52:50;;;;;;;15.67;11.93;;;;;;;;;;5087106;28;20667;-80
2023/09/13 04:55:20;;;;;;;15.20;12.10;;;;;;;;;;5095758;28;20402;-81
2023/09/13 04:57:46;;;;;;;12.93;11.60;;;;;;;;;;5096251;28;20167;-80
2023/09/13 05:00:14;;;;;;;13.40;11.07;;;;;;;;;;5094534;28;20424;-81
2023/09/13 05:02:40;;;;;;;14.50;11.30;;;;;;;;;;5095885;28;20275;-86
2023/09/13 05:05:06;;;;;;;15.07;11.00;;;;;;;;;;5096473;28;20421;-81
2023/09/13 05:07:32;;;;;;;14.53;10.77;;;;;;;;;;5095920;28;20471;-81
2023/09/13 05:09:58;;;;;;;15.03;10.27;;;;;;;;;;5095695;28;20891;-81
2023/09/13 05:12:24;;;;;;;17.37;10.40;;;;;;;;;;5094489;28;20188;-81
2023/09/13 05:14:50;;;;;;;14.73;9.83;;;;;;;;;;5096249;28;20504;-84
2023/09/13 05:17:16;;;;;;;13.40;10.40;;;;;;;;;;5087719;28;20190;-85
2023/09/13 05:19:42;;;;;;;16.77;9.87;;;;;;;;;;5091634;28;20426;-88
2023/09/13 05:22:08;;;;;;;16.03;9.13;;;;;;;;;;5095681;28;20413;-87
2023/09/13 05:24:34;;;;;;;8.17;6.30;;;;;;;;;;5095613;28;20783;-86
2023/09/13 05:26:59;;;;;;;4.50;2.80;;;;;;;;;;5095572;28;20214;-87
2023/09/13 05:29:25;;;;;;;3.70;1.47;;;;;;;;;;5093086;28;20469;-90
2023/09/13 05:31:51;;;;;;;3.03;1.17;;;;;;;;;;5089248;28;20234;-89
2023/09/13 05:34:17;;;;;;;5.53;1.30;;;;;;;;;;5076091;28;20614;-90
2023/09/13 05:36:43;;;;;;;3.57;1.27;;;;;;;;;;5076125;28;20179;-89
2023/09/13 05:39:09;;;;;;;4.27;1.60;;;;;;;;;;5075621;28;20898;-87
2023/09/13 05:41:37;;;;;;;3.73;1.00;;;;;;;;;;5076099;28;20943;-91
2023/09/13 05:44:03;;;;;;;4.20;1.33;;;;;;;;;;5075814;28;20254;-88
2023/09/13 05:46:29;;;;;;;1.97;1.07;;;;;;;;;;5075294;28;20572;-90
2023/09/13 05:48:55;;;;;;;2.90;0.83;;;;;;;;;;5075678;28;20408;-84
2023/09/13 05:51:21;;;;;;;6.33;1.07;;;;;;;;;;5075488;28;20414;-91
2023/09/13 05:53:47;;;;;;;4.27;1.60;;;;;;;;;;5075169;28;20514;-83
2023/09/13 05:56:13;;;;;;;4.33;1.33;;;;;;;;;;5075460;28;20449;-91
2023/09/13 05:58:43;;;;;;;2.70;1.27;;;;;;;;;;5075429;28;20175;-85
2023/09/13 06:01:11;;;;;;;3.90;1.03;;;;;;;;;;5075329;28;20406;-91
2023/09/13 06:03:38;;;;;;;2.90;0.70;;;;;;;;;;5074754;28;20459;-80
2023/09/13 06:06:03;;;;;;;2.70;1.03;;;;;;;;;;5074811;28;20905;-86
2023/09/13 06:08:29;;;;;;;2.30;0.67;;;;;;;;;;5074600;28;20411;-81
2023/09/13 06:10:56;;;;;;;4.60;1.00;;;;;;;;;;5074956;28;20500;-85
2023/09/13 06:13:21;;;;;;;3.13;1.47;;;;;;;;;;5073551;28;20511;-81
2023/09/13 06:15:47;;;;;;;2.67;0.60;;;;;;;;;;5074584;28;20430;-85
2023/09/13 06:18:14;;;;;;;2.10;0.73;;;;;;;;;;5074759;28;20193;-79
2023/09/13 06:20:40;;;;;;;3.10;1.67;;;;;;;;;;5074300;28;20280;-80
2023/09/13 06:23:05;;;;;;;3.00;1.67;;;;;;;;;;5074513;28;20433;-82
2023/09/13 06:25:31;;;;;;;2.40;1.03;;;;;;;;;;5073463;28;20989;-84
2023/09/13 06:27:57;;;;;;;3.53;1.07;;;;;;;;;;5074292;28;20420;-81
2023/09/13 06:30:23;;;;;;;2.60;0.90;;;;;;;;;;5074364;28;20175;-89
2023/09/13 06:32:49;;;;;;;3.40;1.23;;;;;;;;;;5073941;28;20417;-84
2023/09/13 06:35:15;;;;;;;2.37;1.50;;;;;;;;;;5074049;28;20410;-80
2023/09/13 06:37:41;;;;;;;1.90;0.90;;;;;;;;;;5074215;28;20495;-80
2023/09/13 06:40:08;;;;;;;4.23;1.40;;;;;;;;;;5073609;28;20852;-83
2023/09/13 06:42:34;;;;;;;2.67;0.83;;;;;;;;;;5073829;28;20443;-87
2023/09/13 06:45:02;;;;;;;2.60;0.70;;;;;;;;;;5074023;28;20401;-87
2023/09/13 06:47:30;;;;;;;2.50;1.10;;;;;;;;;;5072979;28;20563;-87
2023/09/13 06:49:56;;;;;;;1.40;0.60;;;;;;;;;;5073904;28;20165;-88
2023/09/13 06:52:22;;;;;;;1.37;0.73;;;;;;;;;;5072655;28;20933;-87
2023/09/13 06:54:48;;;;;;;1.67;0.40;;;;;;;;;;5072445;28;20418;-93
2023/09/13 06:57:15;;;;;;;0.90;0.30;;;;;;;;;;5073900;28;20412;-88
2023/09/13 06:59:41;;;;;;;1.13;0.20;;;;;;;;;;5074146;28;20241;-85
2023/09/13 07:02:08;;;;;;;0.90;0.20;;;;;;;;;;5073733;28;20925;-82
2023/09/13 07:04:34;;;;;;;1.10;0.23;;;;;;;;;;5073552;28;20198;-83
2023/09/13 07:07:00;;;;;;;0.60;0.20;;;;;;;;;;5073472;28;20468;-82
2023/09/13 07:09:26;;;;;;;1.13;0.20;;;;;;;;;;5072945;28;20433;-83
2023/09/13 07:11:51;;;;;;;2.30;0.33;;;;;;;;;;5073482;28;20246;-82
2023/09/13 07:14:18;;;;;;;0.60;0.10;;;;;;;;;;5073467;28;20412;-83
2023/09/13 07:16:44;;;;;;;2.37;0.20;;;;;;;;;;5073503;28;20174;-84
2023/09/13 07:19:09;;;;;;;0.70;0.20;;;;;;;;;;5077919;28;20420;-83
2023/09/13 07:21:35;;;;;;;0.60;0.30;;;;;;;;;;5091899;28;20419;-83
2023/09/13 07:24:01;;;;;;;1.53;0.60;;;;;;;;;;5093156;28;20212;-83
2023/09/13 07:26:27;;;;;;;0.50;0.20;;;;;;;;;;5091763;28;20254;-82
2023/09/13 07:28:53;;;;;;;0.80;0.20;;;;;;;;;;5091905;28;20454;-83
2023/09/13 07:31:19;;;;;;;1.00;0.20;;;;;;;;;;5093202;28;20697;-82
2023/09/13 07:33:45;;;;;;;1.23;0.30;;;;;;;;;;5093247;28;20248;-82
2023/09/13 07:36:11;;;;;;;0.63;0.20;;;;;;;;;;5091045;28;20458;-83
2023/09/13 07:38:37;;;;;;;0.73;0.20;;;;;;;;;;5092944;28;20224;-83
2023/09/13 07:41:03;;;;;;;1.70;0.23;;;;;;;;;;5091990;28;20418;-82
2023/09/13 07:43:30;;;;;;;2.77;0.30;;;;;;;;;;5093163;28;20428;-83
2023/09/13 07:45:55;;;;;;;0.40;0.20;;;;;;;;;;5093094;28;20471;-83
2023/09/13 07:48:23;;;;;;;1.50;0.20;;;;;;;;;;5091948;28;20409;-82
2023/09/13 07:50:48;;;;;;;0.80;0.20;;;;;;;;;;5091880;28;20422;-82
2023/09/13 07:53:14;;;;;;;1.23;0.50;;;;;;;;;;5092738;28;20498;-82
2023/09/13 07:55:41;;;;;;;1.27;0.23;;;;;;;;;;5091763;28;20421;-82
2023/09/13 07:58:07;;;;;;;1.60;0.20;;;;;;;;;;5093296;28;20404;-84
2023/09/13 08:00:34;;;;;;;2.10;0.30;;;;;;;;;;5093333;28;20413;-83
2023/09/13 08:03:00;;;;;;;4.30;0.23;;;;;;;;;;5092817;28;20475;-82
2023/09/13 08:05:26;;;;;;;2.13;0.53;;;;;;;;;;5092868;28;20482;-82
2023/09/13 08:07:53;;;;;;;2.37;0.57;;;;;;;;;;5092601;28;20415;-82
2023/09/13 08:10:21;;;;;;;2.30;0.60;;;;;;;;;;5092909;28;20408;-83
2023/09/13 08:12:47;;;;;;;3.83;0.60;;;;;;;;;;5092801;28;20404;-82
2023/09/13 08:15:13;;;;;;;4.37;0.90;;;;;;;;;;5092911;28;20421;-83
2023/09/13 08:17:39;;;;;;;4.03;0.93;;;;;;;;;;5092798;28;20214;-83
2023/09/13 08:20:08;;;;;;;3.73;1.13;;;;;;;;;;5091520;28;20409;-84
2023/09/13 08:22:34;;;;;;;4.20;0.50;;;;;;;;;;5092780;28;20448;-82
2023/09/13 08:25:00;;;;;;;4.23;1.00;;;;;;;;;;5092396;28;20503;-83
2023/09/13 08:27:26;;;;;;;3.60;0.57;;;;;;;;;;5092754;28;20739;-83
2023/09/13 08:29:53;;;;;;;4.20;0.87;;;;;;;;;;5092664;28;20939;-82
2023/09/13 08:32:19;;;;;;;3.30;0.80;;;;;;;;;;5092794;28;20206;-82
2023/09/13 08:34:45;;;;;;;4.43;0.97;;;;;;;;;;5093553;28;20953;-87
2023/09/13 08:37:11;;;;;;;3.37;0.77;;;;;;;;;;5093574;28;20192;-85
2023/09/13 08:39:37;;;;;;;8.80;0.87;;;;;;;;;;5092873;28;21039;-86
2023/09/13 08:42:03;;;;;;;5.87;1.50;;;;;;;;;;5093372;28;20225;-84
2023/09/13 08:44:30;;;;;;;2.60;1.27;;;;;;;;;;5093125;28;20455;-89
2023/09/13 08:46:58;;;;;;;3.00;0.83;;;;;;;;;;5091657;28;20480;-83
2023/09/13 08:49:24;;;;;;;4.07;0.83;;;;;;;;;;5096637;28;20429;-85
2023/09/13 08:51:51;;;;;;;6.00;1.37;;;;;;;;;;5096817;28;20402;-89
2023/09/13 08:54:17;;;;;;;5.70;1.20;;;;;;;;;;5095143;28;20436;-85
2023/09/13 08:56:45;;;;;;;5.50;1.73;;;;;;;;;;5096721;28;20411;-89
2023/09/13 08:59:12;;;;;;;3.03;1.00;;;;;;;;;;5095753;28;20550;-88
2023/09/13 09:01:38;;;;;;;3.30;1.00;;;;;;;;;;5096491;28;20461;-88
2023/09/13 09:04:04;;;;;;;5.23;1.47;;;;;;;;;;5096566;28;20807;-88
2023/09/13 09:06:31;;;;;;;5.23;0.93;;;;;;;;;;5095198;28;20468;-90
2023/09/13 09:08:57;;;;;;;4.37;0.90;;;;;;;;;;5096105;28;20427;-86
2023/09/13 09:11:24;;;;;;;3.40;1.13;;;;;;;;;;5095284;28;20814;-86
2023/09/13 09:13:50;;;;;;;4.47;0.97;;;;;;;;;;5095943;28;20429;-82
2023/09/13 09:16:17;;;;;;;4.63;1.20;;;;;;;;;;5095914;28;20909;-81
2023/09/13 09:18:44;;;;;;;3.90;1.23;;;;;;;;;;5095799;28;20420;-82
2023/09/13 09:21:11;;;;;;;2.40;0.60;;;;;;;;;;5095689;28;20410;-81
2023/09/13 09:23:38;;;;;;;5.80;1.43;;;;;;;;;;5094087;28;20432;-82
2023/09/13 09:26:04;;;;;;;6.60;1.47;;;;;;;;;;5095594;28;20465;-81
2023/09/13 09:28:32;;;;;;;3.33;1.00;;;;;;;;;;5095531;28;20433;-81
2023/09/13 09:31:00;;;;;;;2.60;1.47;;;;;;;;;;5095574;28;20416;-83
2023/09/13 09:33:30;;;;;;;6.77;0.93;;;;;;;;;;5095467;28;20404;-82
2023/09/13 09:35:57;;;;;;;5.80;0.90;;;;;;;;;;5095478;28;20413;-83
2023/09/13 09:38:24;;;;;;;3.73;1.60;;;;;;;;;;5093781;28;20420;-82
2023/09/13 09:40:50;;;;;;;3.57;2.00;;;;;;;;;;5095290;28;20895;-81
2023/09/13 09:43:16;;;;;;;2.83;0.80;;;;;;;;;;5094085;28;20505;-81
2023/09/13 09:45:43;;;;;;;5.40;1.20;;;;;;;;;;5095225;28;20548;-82
2023/09/13 09:48:09;;;;;;;7.80;2.00;;;;;;;;;;5095336;28;20457;-84
2023/09/13 09:50:37;;;;;;;3.43;1.40;;;;;;;;;;5095129;28;20413;-81
2023/09/13 09:53:09;;;;;;;7.33;1.17;;;;;;;;;;5094403;28;20440;-81
2023/09/13 09:55:37;;;;;;;4.73;1.90;;;;;;;;;;5095061;28;20416;-81
2023/09/13 09:58:03;;;;;;;5.43;0.90;;;;;;;;;;5094985;28;20460;-84
2023/09/13 10:00:29;;;;;;;4.17;0.70;;;;;;;;;;5093492;28;20412;-81
2023/09/13 10:02:55;;;;;;;5.70;1.73;;;;;;;;;;5094240;28;20461;-81
2023/09/13 10:05:21;;;;;;;3.63;0.87;;;;;;;;;;5094247;28;20421;-80
2023/09/13 10:07:51;;;;;;;5.70;1.63;;;;;;;;;;5091438;28;20479;-80
2023/09/13 10:10:33;;;;;;;6.40;1.07;;;;;;;;;;5094126;28;20413;-80
2023/09/13 10:12:59;;;;;;;6.20;1.47;;;;;;;;;;5094123;28;20765;-83
2023/09/13 10:15:26;;;;;;;3.33;0.93;;;;;;;;;;5093997;28;20405;-80
2023/09/13 10:17:53;;;;;;;8.10;1.73;;;;;;;;;;5093964;28;20458;-80
2023/09/13 10:20:23;;;;;;;3.20;1.17;;;;;;;;;;5093927;28;20420;-81
2023/09/13 10:22:50;;;;;;;7.90;1.53;;;;;;;;;;5093453;28;20413;-81
2023/09/13 10:25:18;;;;;;;5.57;1.30;;;;;;;;;;5094514;28;20474;-81
2023/09/13 10:27:46;;;;;;;6.07;1.70;;;;;;;;;;5094406;28;20497;-82
2023/09/13 10:30:15;;;;;;;12.30;2.53;;;;;;;;;;5094511;28;20404;-81
2023/09/13 10:32:47;;;;;;;4.40;1.20;;;;;;;;;;5092221;28;20436;-80
2023/09/13 10:35:15;;;;;;;3.27;1.70;;;;;;;;;;5076256;28;20426;-80
2023/09/13 10:37:41;;;;;;;9.00;1.87;;;;;;;;;;5073587;28;20768;-80
2023/09/13 10:40:10;;;;;;;10.27;1.40;;;;;;;;;;5073869;28;20419;-80
2023/09/13 10:42:38;;;;;;;8.77;1.77;;;;;;;;;;5073900;28;20502;-80
2023/09/13 10:45:04;;;;;;;6.07;1.43;;;;;;;;;;5073737;28;20503;-81
2023/09/13 10:47:30;;;;;;;7.57;1.50;;;;;;;;;;5089247;28;20475;-80
2023/09/13 10:49:56;;;;;;;8.33;1.47;;;;;;;;;;5089167;28;20413;-80
2023/09/13 10:52:23;;;;;;;5.83;1.40;;;;;;;;;;5073158;28;20419;-81
2023/09/13 10:54:50;;;;;;;5.33;1.97;;;;;;;;;;5082326;28;20515;-81
2023/09/13 10:57:16;;;;;;;6.07;2.00;;;;;;;;;;5093887;28;20421;-87
2023/09/13 10:59:43;;;;;;;5.43;1.60;;;;;;;;;;5093959;28;21007;-85
2023/09/13 11:02:09;;;;;;;5.43;1.50;;;;;;;;;;5093582;28;20459;-81
2023/09/13 11:04:35;;;;;;;9.87;1.50;;;;;;;;;;5093755;28;20776;-85
2023/09/13 11:07:04;;;;;;;5.03;1.57;;;;;;;;;;5093647;28;20501;-80
2023/09/13 11:09:31;;;;;;;6.87;1.60;;;;;;;;;;5093320;28;20413;-81
2023/09/13 11:11:58;;;;;;;3.43;1.03;;;;;;;;;;5093433;28;20419;-80
2023/09/13 11:14:24;;;;;;;7.00;1.10;;;;;;;;;;5092307;28;20420;-87
2023/09/13 11:16:50;;;;;;;5.13;0.90;;;;;;;;;;5093698;28;20970;-88
2023/09/13 11:19:16;;;;;;;6.13;2.30;;;;;;;;;;5093738;28;20410;-85
2023/09/13 11:21:46;;;;;;;7.80;1.73;;;;;;;;;;5092058;28;20435;-84
2023/09/13 11:24:12;;;;;;;8.70;1.70;;;;;;;;;;5093409;28;20171;-90
2023/09/13 11:26:44;;;;;;;5.23;2.13;;;;;;;;;;5093646;28;20472;-88
2023/09/13 11:29:27;;;;;;;5.13;1.90;;;;;;;;;;5093545;28;20404;-81
2023/09/13 11:32:00;;;;;;;7.33;1.47;;;;;;;;;;5093507;28;20492;-80
2023/09/13 11:34:26;;;;;;;8.47;1.83;;;;;;;;;;5093326;28;20404;-82
2023/09/13 11:37:11;;;;;;;7.27;1.80;;;;;;;;;;5093515;28;20414;-80
2023/09/13 11:39:38;;;;;;;8.80;2.57;;;;;;;;;;5093356;28;20498;-82
2023/09/13 11:42:05;;;;;;;8.17;1.70;;;;;;;;;;5077862;28;20592;-84
2023/09/13 11:44:31;;;;;;;6.43;2.20;;;;;;;;;;5072362;28;20815;-84
2023/09/13 11:46:57;;;;;;;6.80;2.00;;;;;;;;;;5072348;28;20553;-83
2023/09/13 11:49:24;;;;;;;5.83;2.00;;;;;;;;;;5072044;28;20410;-87
2023/09/13 11:51:52;;;;;;;9.70;1.73;;;;;;;;;;5072171;28;20783;-82
2023/09/13 11:54:18;;;;;;;5.53;2.13;;;;;;;;;;5071870;28;20417;-88
2023/09/13 11:56:45;;;;;;;7.00;1.70;;;;;;;;;;5087167;28;20440;-83
2023/09/13 11:59:12;;;;;;;6.67;1.83;;;;;;;;;;5072102;28;20446;-87
2023/09/13 12:01:43;;;;;;;5.90;1.20;;;;;;;;;;5072029;28;20416;-80
2023/09/13 12:04:09;;;;;;;8.67;2.20;;;;;;;;;;5086137;28;20511;-79
2023/09/13 12:06:42;;;;;;;6.60;1.73;;;;;;;;;;5070548;28;20559;-80
2023/09/13 12:09:16;;;;;;;9.27;2.67;;;;;;;;;;5070716;28;20418;-79
2023/09/13 12:11:42;;;;;;;5.70;1.47;;;;;;;;;;5082957;28;20407;-79
2023/09/13 12:14:09;;;;;;;4.10;1.33;;;;;;;;;;5092362;28;20977;-85
2023/09/13 12:16:37;;;;;;;6.00;1.20;;;;;;;;;;5092321;28;20503;-84
2023/09/13 12:19:03;;;;;;;7.53;2.07;;;;;;;;;;5092860;28;20764;-82
2023/09/13 12:21:29;;;;;;;7.90;1.27;;;;;;;;;;5092855;28;20413;-80
2023/09/13 12:23:55;;;;;;;6.70;1.33;;;;;;;;;;5095543;28;20466;-84
2023/09/13 12:26:23;;;;;;;8.00;2.33;;;;;;;;;;5096573;28;20214;-82
2023/09/13 12:28:49;;;;;;;6.10;1.20;;;;;;;;;;5095366;28;20896;-79
2023/09/13 12:31:16;;;;;;;5.00;1.53;;;;;;;;;;5096590;28;20421;-79
2023/09/13 12:33:43;;;;;;;6.00;1.90;;;;;;;;;;5096706;28;20411;-79
2023/09/13 12:36:09;;;;;;;6.37;0.80;;;;;;;;;;5096618;28;20407;-79
2023/09/13 12:38:41;;;;;;;4.20;1.20;;;;;;;;;;5080561;28;20762;-84
2023/09/13 12:41:07;;;;;;;8.20;0.90;;;;;;;;;;5076247;28;20509;-83
2023/09/13 12:43:35;;;;;;;6.07;1.13;;;;;;;;;;5091858;28;20414;-80
2023/09/13 12:46:02;;;;;;;6.97;1.00;;;;;;;;;;5076086;28;20456;-81
2023/09/13 12:48:28;;;;;;;5.43;0.53;;;;;;;;;;5077591;28;20535;-82
2023/09/13 12:50:54;;;;;;;3.70;0.83;;;;;;;;;;5094199;28;20494;-80
2023/09/13 12:53:21;;;;;;;7.37;1.03;;;;;;;;;;5093526;28;20422;-81
2023/09/13 12:55:47;;;;;;;3.90;1.40;;;;;;;;;;5095300;28;20405;-84
2023/09/13 12:58:14;;;;;;;4.63;1.10;;;;;;;;;;5093753;28;20473;-85
2023/09/13 13:01:15;;;;;;;4.20;0.90;;;;;;;;;;5094924;28;20415;-82
2023/09/13 13:03:59;;;;;;;3.23;0.50;;;;;;;;;;5071837;28;21015;-81
2023/09/13 13:06:26;;;;;;;3.97;1.03;;;;;;;;;;5092982;28;20496;-81
2023/09/13 13:08:52;;;;;;;9.50;1.23;;;;;;;;;;5094397;28;20801;-81
2023/09/13 13:11:18;;;;;;;3.50;0.90;;;;;;;;;;5094793;28;20570;-82
2023/09/13 13:13:45;;;;;;;4.70;0.90;;;;;;;;;;5094616;28;20912;-82
2023/09/13 13:16:15;;;;;;;3.13;1.43;;;;;;;;;;5094633;28;20175;-81
2023/09/13 13:18:45;;;;;;;5.53;0.70;;;;;;;;;;5094416;28;20452;-82
2023/09/13 13:21:14;;;;;;;4.20;1.37;;;;;;;;;;5094372;28;20833;-82
2023/09/13 13:23:42;;;;;;;2.57;0.63;;;;;;;;;;5094255;28;20408;-84
2023/09/13 13:26:08;;;;;;;3.57;1.00;;;;;;;;;;5093620;28;20531;-81
2023/09/13 13:28:34;;;;;;;5.97;1.03;;;;;;;;;;5093056;28;20914;-81
2023/09/13 13:31:00;;;;;;;5.33;1.23;;;;;;;;;;5094313;28;20950;-82
2023/09/13 13:33:26;;;;;;;3.20;1.40;;;;;;;;;;5094108;28;20760;-82
2023/09/13 13:35:52;;;;;;;4.40;1.60;;;;;;;;;;5093832;28;20162;-81
2023/09/13 13:38:18;;;;;;;4.47;1.47;;;;;;;;;;5092423;28;20430;-80
2023/09/13 13:40:44;;;;;;;7.73;1.50;;;;;;;;;;5094036;28;20565;-81
2023/09/13 13:43:10;;;;;;;4.23;1.47;;;;;;;;;;5094017;28;20413;-81
2023/09/13 13:45:36;;;;;;;2.90;1.57;;;;;;;;;;5093840;28;20167;-79
2023/09/13 13:48:02;;;;;;;4.47;1.40;;;;;;;;;;5093862;28;20702;-80
2023/09/13 13:50:28;;;;;;;3.37;1.50;;;;;;;;;;5093982;28;20197;-80
2023/09/13 13:52:54;;;;;;;4.13;1.03;;;;;;;;;;5093554;28;20429;-81
2023/09/13 13:55:20;;;;;;;3.27;0.97;;;;;;;;;;5093359;28;20415;-82
2023/09/13 13:57:46;;;;;;;6.03;1.00;;;;;;;;;;5093783;28;20418;-83
2023/09/13 14:00:13;;;;;;;1.77;0.67;;;;;;;;;;5093662;28;20934;-82
2023/09/13 14:02:39;;;;;;;3.30;0.80;;;;;;;;;;5093552;28;20458;-82
2023/09/13 14:05:05;;;;;;;3.63;1.60;;;;;;;;;;5093673;28;20409;-84
2023/09/13 14:07:32;;;;;;;3.30;1.03;;;;;;;;;;5093216;28;20502;-84
2023/09/13 14:09:59;;;;;;;5.53;0.93;;;;;;;;;;5093581;28;20738;-83
2023/09/13 14:12:25;;;;;;;3.03;0.80;;;;;;;;;;5093493;28;20445;-81
2023/09/13 14:14:51;;;;;;;2.40;1.10;;;;;;;;;;5093460;28;20452;-83
2023/09/13 14:17:16;;;;;;;3.00;0.53;;;;;;;;;;5092819;28;20284;-85
2023/09/13 14:19:42;;;;;;;2.70;0.77;;;;;;;;;;5092217;28;20471;-85
2023/09/13 14:22:09;;;;;;;3.43;1.23;;;;;;;;;;5093084;28;20176;-80
2023/09/13 14:24:35;;;;;;;2.97;0.70;;;;;;;;;;5093409;28;20475;-83
2023/09/13 14:27:01;;;;;;;2.50;0.80;;;;;;;;;;5093555;28;20478;-86
2023/09/13 14:29:27;;;;;;;3.27;1.37;;;;;;;;;;5093760;28;20621;-87
2023/09/13 14:32:00;;;;;;;3.80;0.70;;;;;;;;;;5092887;28;20422;-86